createdAt,value
2018-12-30T00:03:29.499Z,27.83
2018-12-30T00:13:35.230Z,25.97
2018-12-30T00:23:40.981Z,53.47
2018-12-30T00:33:46.529Z,36.87
2018-12-30T00:43:52.073Z,21.97
2018-12-30T00:53:57.522Z,19.90
2018-12-30T01:04:02.903Z,22.57
2018-12-30T01:14:08.607Z,18.80
2018-12-30T01:24:14.014Z,22.50
2018-12-30T01:34:19.360Z,21.37
2018-12-30T01:44:24.770Z,22.87
2018-12-30T01:54:30.081Z,37.57
2018-12-30T02:04:35.451Z,25.33
2018-12-30T02:14:40.809Z,26.20
2018-12-30T02:24:46.159Z,30.13
2018-12-30T02:34:51.496Z,28.33
2018-12-30T02:44:56.855Z,30.27
2018-12-30T02:55:02.287Z,36.23
2018-12-30T03:05:07.840Z,31.30
2018-12-30T03:15:13.857Z,31.43
2018-12-30T03:25:19.471Z,36.53
2018-12-30T03:35:24.764Z,37.33
2018-12-30T03:45:30.095Z,36.67
2018-12-30T03:55:35.415Z,41.20
2018-12-30T04:05:40.837Z,36.87
2018-12-30T04:15:46.145Z,42.57
2018-12-30T04:25:51.458Z,37.90
2018-12-30T04:35:56.787Z,36.77
2018-12-30T04:46:02.135Z,29.53
2018-12-30T04:56:07.453Z,38.83
2018-12-30T05:06:12.799Z,38.47
2018-12-30T05:16:18.261Z,36.03
2018-12-30T05:26:23.682Z,37.93
2018-12-30T05:36:28.948Z,34.37
2018-12-30T05:46:34.299Z,39.53
2018-12-30T05:56:39.702Z,39.87
2018-12-30T06:06:45.170Z,37.63
2018-12-30T06:16:50.481Z,36.53
2018-12-30T06:26:58.964Z,37.47
2018-12-30T06:37:04.232Z,37.53
2018-12-30T06:47:09.616Z,36.00
2018-12-30T06:57:14.928Z,35.37
2018-12-30T07:07:20.190Z,33.87
2018-12-30T07:17:25.596Z,30.80
2018-12-30T07:27:30.974Z,33.30
2018-12-30T07:37:36.345Z,32.20
2018-12-30T07:47:41.562Z,37.23
2018-12-30T07:57:46.868Z,34.87
2018-12-30T08:07:52.141Z,33.70
2018-12-30T08:17:57.488Z,31.73
2018-12-30T08:28:02.798Z,27.27
2018-12-30T08:38:08.100Z,30.30
2018-12-30T08:48:13.499Z,29.67
2018-12-30T08:58:18.857Z,27.80
2018-12-30T09:08:24.183Z,25.67
2018-12-30T09:18:30.501Z,21.90
2018-12-30T09:28:35.943Z,19.47
2018-12-30T09:38:42.375Z,20.47
2018-12-30T09:48:47.939Z,21.83
2018-12-30T09:58:53.464Z,22.77
2018-12-30T10:08:59.048Z,22.20
2018-12-30T10:19:08.041Z,20.37
2018-12-30T10:29:13.553Z,19.73
2018-12-30T10:39:18.863Z,20.37
2018-12-30T10:49:24.257Z,20.57
2018-12-30T10:59:29.637Z,19.20
2018-12-30T11:09:34.879Z,20.30
2018-12-30T11:19:40.306Z,16.67
2018-12-30T11:29:45.831Z,17.60
2018-12-30T11:39:51.308Z,17.93
2018-12-30T11:49:56.824Z,17.80
2018-12-30T12:00:02.242Z,19.77
2018-12-30T12:10:08.050Z,16.43
2018-12-30T12:20:13.403Z,10.80
2018-12-30T12:30:18.831Z,11.90
2018-12-30T12:40:24.390Z,11.50
2018-12-30T12:50:29.693Z,22.17
2018-12-30T13:00:35.031Z,13.67
2018-12-30T13:10:40.469Z,10.27
2018-12-30T13:20:45.760Z,9.23
2018-12-30T13:30:51.146Z,10.03
2018-12-30T13:40:56.442Z,9.60
2018-12-30T13:51:01.899Z,15.83
2018-12-30T14:01:07.455Z,28.80
2018-12-30T14:11:12.813Z,12.57
2018-12-30T14:21:18.211Z,13.63
2018-12-30T14:31:23.505Z,14.00
2018-12-30T14:41:28.939Z,14.40
2018-12-30T14:51:34.297Z,37.57
2018-12-30T15:01:39.950Z,11.80
2018-12-30T15:11:45.386Z,22.00
2018-12-30T15:21:50.790Z,13.87
2018-12-30T15:31:56.294Z,14.97
2018-12-30T15:42:01.775Z,16.70
2018-12-30T15:52:07.300Z,19.00
2018-12-30T16:02:12.676Z,19.33
2018-12-30T16:12:18.073Z,19.70
2018-12-30T16:22:23.842Z,20.57
2018-12-30T16:32:29.238Z,19.87
2018-12-30T16:42:34.606Z,22.10
2018-12-30T16:52:40.096Z,20.90
2018-12-30T17:02:45.500Z,19.97
2018-12-30T17:12:51.015Z,23.27
2018-12-30T17:22:56.383Z,26.00
2018-12-30T17:33:01.745Z,22.63
2018-12-30T17:43:07.130Z,29.30
2018-12-30T17:53:12.518Z,26.20
2018-12-30T18:03:17.920Z,27.03
2018-12-30T18:13:23.356Z,24.57
2018-12-30T18:23:28.793Z,23.07
2018-12-30T18:33:34.158Z,19.77
2018-12-30T18:43:39.586Z,21.23
2018-12-30T18:53:44.955Z,17.10
2018-12-30T19:03:50.457Z,14.60
2018-12-30T19:13:55.858Z,27.53
2018-12-30T19:24:01.183Z,13.93
2018-12-30T19:34:06.671Z,10.87
2018-12-30T19:44:13.041Z,10.07
2018-12-30T19:54:18.592Z,13.83
2018-12-30T20:04:24.133Z,8.53
2018-12-30T20:14:29.509Z,10.33
2018-12-30T20:24:34.893Z,10.37
2018-12-30T20:34:40.495Z,8.40
2018-12-30T20:44:45.915Z,9.43
2018-12-30T20:54:51.332Z,10.10
2018-12-30T21:04:56.986Z,7.63
2018-12-30T21:15:02.341Z,11.87
2018-12-30T21:25:07.677Z,7.50
2018-12-30T21:35:12.996Z,9.37
2018-12-30T21:45:18.427Z,7.30
2018-12-30T21:55:23.748Z,7.47
2018-12-30T22:05:29.093Z,8.47
2018-12-30T22:15:34.678Z,7.20
2018-12-30T22:25:40.051Z,10.73
2018-12-30T22:35:45.442Z,8.70
2018-12-30T22:45:50.799Z,9.07
2018-12-30T22:55:56.168Z,6.07
2018-12-30T23:06:01.545Z,5.23
2018-12-30T23:16:07.002Z,6.00
2018-12-30T23:26:12.305Z,7.00
2018-12-30T23:36:17.682Z,5.77
2018-12-30T23:46:23.010Z,6.10
2018-12-30T23:56:28.399Z,5.27
